createdAt,value
2018-07-07T00:03:35.731Z,17.50
2018-07-07T00:08:38.395Z,19.07
2018-07-07T00:13:41.109Z,19.87
2018-07-07T00:18:43.866Z,16.70
2018-07-07T00:23:46.578Z,17.10
2018-07-07T00:28:49.223Z,18.97
2018-07-07T00:33:51.873Z,19.87
2018-07-07T00:38:54.490Z,15.07
2018-07-07T00:43:57.102Z,18.93
2018-07-07T00:49:01.947Z,18.67
2018-07-07T00:54:04.888Z,16.17
2018-07-07T00:59:07.562Z,14.63
2018-07-07T01:04:10.295Z,17.33
2018-07-07T01:09:13.146Z,15.00
2018-07-07T01:14:15.732Z,16.30
2018-07-07T01:19:18.450Z,17.97
2018-07-07T01:24:21.095Z,15.87
2018-07-07T01:29:23.711Z,15.57
2018-07-07T01:34:26.326Z,17.13
2018-07-07T01:39:29.626Z,16.97
2018-07-07T01:44:32.298Z,19.47
2018-07-07T01:49:34.939Z,15.97
2018-07-07T01:54:37.591Z,20.30
2018-07-07T01:59:40.217Z,18.00
2018-07-07T02:04:42.822Z,15.17
2018-07-07T02:09:45.455Z,14.60
2018-07-07T02:14:48.143Z,14.77
2018-07-07T02:19:50.791Z,19.03
2018-07-07T02:24:53.562Z,15.40
2018-07-07T02:29:56.207Z,17.83
2018-07-07T02:34:58.828Z,15.33
2018-07-07T02:40:02.455Z,12.53
2018-07-07T02:45:05.124Z,13.23
2018-07-07T02:50:07.826Z,17.50
2018-07-07T02:55:10.576Z,17.03
2018-07-07T03:00:13.199Z,14.60
2018-07-07T03:05:15.879Z,12.97
2018-07-07T03:10:18.571Z,13.23
2018-07-07T03:15:22.471Z,17.73
2018-07-07T03:20:25.091Z,19.60
2018-07-07T03:25:27.728Z,21.47
2018-07-07T03:30:30.396Z,20.83
2018-07-07T03:35:33.038Z,13.80
2018-07-07T03:40:35.671Z,18.10
2018-07-07T03:45:38.263Z,19.97
2018-07-07T03:50:41.007Z,18.67
2018-07-07T03:55:43.631Z,15.70
2018-07-07T04:00:46.239Z,17.83
2018-07-07T04:05:48.857Z,18.20
2018-07-07T04:10:53.393Z,14.27
2018-07-07T04:15:55.993Z,16.80
2018-07-07T04:20:59.063Z,16.17
2018-07-07T04:26:01.857Z,14.90
2018-07-07T04:31:04.607Z,15.03
2018-07-07T04:36:07.250Z,13.60
2018-07-07T04:41:09.874Z,15.07
2018-07-07T04:46:12.706Z,12.23
2018-07-07T04:51:15.391Z,10.83
2018-07-07T04:56:18.050Z,11.83
2018-07-07T05:01:20.679Z,10.33
2018-07-07T05:06:23.854Z,12.17
2018-07-07T05:11:26.513Z,12.17
2018-07-07T05:16:29.233Z,10.27
2018-07-07T05:21:31.911Z,10.43
2018-07-07T05:26:34.521Z,10.80
2018-07-07T05:31:37.146Z,10.27
2018-07-07T05:36:39.940Z,13.17
2018-07-07T05:41:42.557Z,18.10
2018-07-07T05:46:45.195Z,17.53
2018-07-07T05:51:47.852Z,25.43
2018-07-07T05:56:50.624Z,23.43
2018-07-07T06:01:53.495Z,19.87
2018-07-07T06:06:56.321Z,19.60
2018-07-07T06:11:59.027Z,19.60
2018-07-07T06:17:02.524Z,16.70
2018-07-07T06:22:05.209Z,21.23
2018-07-07T06:27:07.886Z,14.67
2018-07-07T06:32:10.602Z,15.97
2018-07-07T06:37:13.292Z,12.40
2018-07-07T06:42:15.890Z,14.07
2018-07-07T06:47:18.539Z,11.10
2018-07-07T06:52:21.148Z,12.67
2018-07-07T06:57:24.318Z,10.00
2018-07-07T07:02:27.021Z,12.73
2018-07-07T07:07:29.805Z,11.67
2018-07-07T07:12:32.594Z,14.30
2018-07-07T07:17:35.255Z,11.53
2018-07-07T07:22:37.914Z,12.37
2018-07-07T07:27:40.586Z,14.77
2018-07-07T07:32:43.239Z,11.13
2018-07-07T07:37:45.907Z,12.40
2018-07-07T07:42:48.550Z,11.97
2018-07-07T07:47:51.203Z,11.17
2018-07-07T07:52:53.884Z,11.23
2018-07-07T07:57:56.675Z,12.50
2018-07-07T08:02:59.348Z,11.17
2018-07-07T08:08:02.046Z,10.03
2018-07-07T08:13:05.281Z,10.50
2018-07-07T08:18:07.917Z,10.10
2018-07-07T08:23:10.639Z,10.07
2018-07-07T08:28:13.962Z,11.17
2018-07-07T08:33:16.607Z,11.70
2018-07-07T08:38:19.186Z,9.10
2018-07-07T08:43:21.832Z,10.20
2018-07-07T08:48:24.615Z,10.55
2018-07-07T08:53:27.260Z,9.73
2018-07-07T08:58:31.314Z,9.57
2018-07-07T09:03:34.105Z,7.57
2018-07-07T09:08:36.676Z,9.03
2018-07-07T09:13:39.343Z,6.63
2018-07-07T09:18:42.041Z,10.20
2018-07-07T09:23:44.720Z,7.40
2018-07-07T09:28:48.107Z,6.83
2018-07-07T09:33:50.759Z,6.87
2018-07-07T09:38:53.502Z,6.40
2018-07-07T09:43:56.150Z,6.87
2018-07-07T09:48:58.795Z,5.93
2018-07-07T09:54:01.449Z,7.97
2018-07-07T09:59:04.167Z,6.73
2018-07-07T10:04:07.203Z,6.27
2018-07-07T10:09:09.827Z,8.67
2018-07-07T10:14:12.431Z,9.23
2018-07-07T10:19:15.055Z,10.80
2018-07-07T10:24:17.698Z,11.23
2018-07-07T10:29:20.354Z,11.07
2018-07-07T10:34:22.998Z,9.00
2018-07-07T10:39:25.738Z,9.63
2018-07-07T10:44:28.443Z,7.70
2018-07-07T10:49:31.217Z,6.60
2018-07-07T10:54:33.831Z,6.57
2018-07-07T10:59:36.579Z,10.37
2018-07-07T11:04:39.250Z,10.00
2018-07-07T11:09:41.901Z,9.17
2018-07-07T11:14:44.498Z,11.70
2018-07-07T11:19:47.919Z,9.57
2018-07-07T11:24:50.574Z,10.28
2018-07-07T11:29:53.282Z,10.00
2018-07-07T11:34:56.021Z,10.90
2018-07-07T11:39:58.782Z,8.37
2018-07-07T11:45:01.463Z,11.70
2018-07-07T11:50:04.636Z,9.63
2018-07-07T11:55:07.326Z,8.50
2018-07-07T12:00:10.025Z,10.53
2018-07-07T12:05:12.782Z,7.67
2018-07-07T12:10:15.412Z,8.23
2018-07-07T12:15:18.131Z,9.20
2018-07-07T12:20:20.784Z,7.05
2018-07-07T12:25:23.569Z,7.30
2018-07-07T12:30:26.225Z,8.30
2018-07-07T12:35:29.010Z,7.07
2018-07-07T12:40:31.745Z,7.10
2018-07-07T12:45:35.277Z,6.83
2018-07-07T12:50:40.627Z,9.10
2018-07-07T12:55:43.388Z,8.23
2018-07-07T13:00:45.906Z,8.90
2018-07-07T13:05:48.573Z,6.62
2018-07-07T13:10:51.250Z,7.65
2018-07-07T13:15:54.058Z,6.53
2018-07-07T13:20:58.320Z,5.85
2018-07-07T13:26:01.382Z,8.90
2018-07-07T13:31:04.041Z,8.05
2018-07-07T13:36:06.662Z,6.75
2018-07-07T13:41:10.080Z,8.75
2018-07-07T13:46:12.703Z,8.80
2018-07-07T13:51:15.298Z,6.05
2018-07-07T13:56:17.999Z,6.90
2018-07-07T14:01:20.628Z,9.20
2018-07-07T14:06:23.298Z,5.53
2018-07-07T14:11:25.914Z,5.72
2018-07-07T14:16:28.622Z,7.55
2018-07-07T14:21:31.472Z,6.07
2018-07-07T14:26:34.990Z,7.00
2018-07-07T14:31:37.607Z,5.97
2018-07-07T14:36:40.153Z,6.50
2018-07-07T14:41:42.895Z,6.50
2018-07-07T14:46:45.463Z,6.27
2018-07-07T14:51:48.115Z,7.17
2018-07-07T14:56:50.705Z,11.38
2018-07-07T15:01:53.388Z,5.55
2018-07-07T15:06:56.354Z,7.50
2018-07-07T15:12:01.912Z,5.95
2018-07-07T15:17:04.611Z,7.55
2018-07-07T15:22:07.262Z,6.83
2018-07-07T15:27:09.914Z,6.95
2018-07-07T15:32:12.560Z,6.28
2018-07-07T15:37:15.265Z,5.25
2018-07-07T15:42:17.970Z,5.25
2018-07-07T15:47:20.612Z,6.25
2018-07-07T15:52:23.154Z,7.10
2018-07-07T15:57:25.811Z,10.63
2018-07-07T16:02:28.426Z,6.85
2018-07-07T16:07:31.054Z,6.67
2018-07-07T16:12:33.684Z,5.65
2018-07-07T16:17:36.335Z,5.70
2018-07-07T16:22:38.962Z,5.30
2018-07-07T16:27:41.556Z,5.97
2018-07-07T16:32:44.226Z,5.70
2018-07-07T16:37:46.933Z,5.67
2018-07-07T16:42:50.066Z,9.78
2018-07-07T16:47:52.779Z,18.23
2018-07-07T16:52:56.544Z,10.28
2018-07-07T16:57:59.543Z,6.78
2018-07-07T17:03:02.274Z,5.53
2018-07-07T17:08:05.046Z,13.22
2018-07-07T17:13:07.878Z,6.15
2018-07-07T17:18:10.538Z,7.50
2018-07-07T17:23:13.475Z,5.08
2018-07-07T17:28:16.155Z,7.47
2018-07-07T17:33:20.321Z,7.33
2018-07-07T17:38:23.063Z,6.83
2018-07-07T17:43:26.079Z,8.13
2018-07-07T17:48:28.841Z,10.83
2018-07-07T17:53:31.642Z,5.80
2018-07-07T17:58:34.356Z,6.17
2018-07-07T18:03:37.061Z,6.47
2018-07-07T18:08:40.174Z,7.20
2018-07-07T18:13:42.875Z,6.93
2018-07-07T18:18:45.518Z,7.77
2018-07-07T18:23:48.211Z,7.90
2018-07-07T18:28:50.925Z,7.53
2018-07-07T18:33:53.572Z,9.07
2018-07-07T18:38:56.250Z,9.17
2018-07-07T18:43:59.051Z,10.03
2018-07-07T18:49:01.679Z,7.87
2018-07-07T18:54:06.426Z,8.27
2018-07-07T18:59:09.051Z,10.70
2018-07-07T19:04:11.663Z,9.83
2018-07-07T19:09:14.406Z,9.80
2018-07-07T19:14:17.757Z,9.17
2018-07-07T19:19:20.407Z,8.97
2018-07-07T19:24:28.645Z,10.80
2018-07-07T19:29:31.730Z,11.73
2018-07-07T19:34:40.090Z,9.60
2018-07-07T19:39:43.614Z,8.33
2018-07-07T19:44:46.167Z,8.67
2018-07-07T19:49:48.788Z,9.53
2018-07-07T19:54:51.478Z,10.87
2018-07-07T19:59:54.131Z,10.13
2018-07-07T20:04:56.899Z,11.10
2018-07-07T20:09:59.537Z,11.10
2018-07-07T20:15:02.267Z,9.60
2018-07-07T20:20:41.799Z,10.83
2018-07-07T20:25:50.130Z,11.27
2018-07-07T20:30:56.833Z,10.57
2018-07-07T20:35:59.562Z,10.87
2018-07-07T20:41:02.200Z,10.17
2018-07-07T20:46:04.913Z,10.50
2018-07-07T20:51:07.671Z,10.33
2018-07-07T20:56:10.350Z,10.87
2018-07-07T21:01:12.992Z,10.90
2018-07-07T21:06:15.750Z,11.27
2018-07-07T21:11:18.353Z,10.57
2018-07-07T21:16:20.982Z,10.13
2018-07-07T21:21:23.912Z,11.23
2018-07-07T21:26:26.780Z,12.30
2018-07-07T21:31:29.460Z,11.53
2018-07-07T21:36:31.993Z,11.70
2018-07-07T21:41:34.643Z,12.43
2018-07-07T21:46:37.385Z,12.07
2018-07-07T21:51:40.073Z,16.00
2018-07-07T21:56:42.827Z,12.03
2018-07-07T22:01:58.778Z,12.23
2018-07-07T22:07:08.214Z,13.50
2018-07-07T22:12:10.891Z,14.77
2018-07-07T22:17:13.540Z,11.50
2018-07-07T22:22:16.302Z,14.90
2018-07-07T22:27:18.939Z,11.83
2018-07-07T22:32:22.778Z,13.37
2018-07-07T22:37:25.412Z,12.83
2018-07-07T22:42:28.157Z,13.90
2018-07-07T22:47:30.961Z,12.63
2018-07-07T22:52:33.630Z,14.67
2018-07-07T22:57:36.335Z,15.50
2018-07-07T23:02:38.975Z,13.20
2018-07-07T23:07:41.739Z,13.30
2018-07-07T23:12:44.354Z,13.17
2018-07-07T23:17:46.983Z,15.00
2018-07-07T23:22:51.049Z,15.53
2018-07-07T23:27:53.781Z,15.47
2018-07-07T23:32:56.740Z,13.87
2018-07-07T23:37:59.415Z,14.60
2018-07-07T23:43:02.046Z,15.00
2018-07-07T23:48:05.031Z,17.83
2018-07-07T23:53:07.731Z,15.07
2018-07-07T23:58:10.494Z,16.73
